Terminal Aerodrome Forecast
Issued by NWS Upton, NY

Home | Current Version | Previous Version | Text Only | Print | Product List | Glossary On
Versions: 1 2 3 4 5 6 7 8 9 10 11 12 13 14 15 16 17 18 19 20 21 22 23 24 25 26 27 28
000
FTUS41 KOKX 280842 AAB
TAFISP
TAF AMD
KISP 280842Z 2809/2906 VRB05KT P6SM FEW012 SCT250
      TEMPO 2809/2811 3SM BR
     FM281500 22006KT P6SM FEW050 FEW250
     FM281800 20009KT P6SM SCT050
     FM290100 23004KT P6SM FEW050=

USA.gov is the U.S. government's official web portal to all federal, state and local government web resources and services.